Balance de Liège centre

Balances > Liège centre > Ce mois-ci

Ce mois-ci

Voir les données pour : cette semaine | hier

Graphiques

  Température (°C)   Humidité (%)   Poids (kg)   Pluie (l/m²)



Journal

Désolé, aucune information concernant cette période n'est disponible.

Tableau

Date Température (°C)Humidité (%)Pluie (l/m²)Poids (kg)
minmaxmoyminmaxmoypoidsvariation
22/08/1916,424,420,4517362,5050,90,0
23/08/1917,424,621,3547563,7050,90,0
24/08/1918,326,522,8497160,1050,90,0
25/08/1919,927,423,6457258,8051,0+0,1
26/08/1920,828,324,8597668,0050,8-0,2
27/08/1922,529,926,0457761,5055,0+4,2
28/08/1922,127,924,9547064,0054,8-0,2
29/08/1922,525,523,7587464,1054,6-0,2
30/08/1918,225,121,6457560,1054,7+0,1
31/08/1917,729,624,3467357,8054,70,0
01/09/1920,021,220,6497160,7054,6-0,1
02/09/1915,022,218,7387254,2054,5-0,1
03/09/1915,520,218,4647767,8054,8+0,3
04/09/1917,624,620,8507264,7054,9+0,1
05/09/1915,318,817,0627971,1055,0+0,1
06/09/1912,720,216,7437861,1054,6-0,4
07/09/1916,719,117,6597970,6055,0+0,4
08/09/1915,717,616,5657972,2055,1+0,1
09/09/1912,519,416,2487762,3055,6+0,5
10/09/1912,621,517,1437258,4056,2+0,6
11/09/1914,818,917,1627468,3056,5+0,3
12/09/1918,823,521,1618673,1058,3+1,8
13/09/1920,622,121,1667772,8059,9+1,6
14/09/1916,623,420,0507460,5059,8-0,1
15/09/1915,725,120,3417357,1060,5+0,7
16/09/1917,321,919,5577165,2060,50,0
17/09/1917,320,918,9527661,8060,6+0,1
18/09/1911,619,816,0467159,0060,4-0,2
19/09/1912,119,215,9467556,7060,2-0,2
20/09/1911,220,716,5386850,5060,20,0